createdAt,value
2019-05-01T00:01:43.471Z,66.53
2019-05-01T00:04:13.671Z,67.39
2019-05-01T00:06:49.784Z,67.66
2019-05-01T00:09:19.013Z,66.45
2019-05-01T00:11:47.684Z,66.97
2019-05-01T00:14:16.306Z,66.81
2019-05-01T00:16:44.930Z,66.71
2019-05-01T00:19:13.660Z,66.89
2019-05-01T00:21:42.282Z,66.11
2019-05-01T00:24:10.844Z,65.06
2019-05-01T00:26:39.464Z,64.59
2019-05-01T00:29:08.204Z,65.16
2019-05-01T00:31:36.744Z,65.83
2019-05-01T00:34:05.478Z,64.88
2019-05-01T00:36:34.109Z,63.82
2019-05-01T00:39:02.743Z,65.12
2019-05-01T00:41:31.371Z,65.27
2019-05-01T00:44:00.009Z,64.87
2019-05-01T00:46:28.674Z,57.50
2019-05-01T00:48:57.323Z,58.40
2019-05-01T00:51:25.948Z,60.20
2019-05-01T00:53:54.651Z,60.30
2019-05-01T00:56:25.003Z,60.32
2019-05-01T00:59:04.520Z,60.83
2019-05-01T01:01:37.516Z,61.87
2019-05-01T01:04:06.337Z,62.92
2019-05-01T01:06:34.979Z,64.05
2019-05-01T01:09:05.097Z,64.65
2019-05-01T01:11:33.602Z,65.45
2019-05-01T01:14:02.233Z,66.09
2019-05-01T01:16:30.890Z,66.73
2019-05-01T01:18:59.521Z,67.25
2019-05-01T01:21:28.177Z,67.17
2019-05-01T01:23:57.474Z,67.54
2019-05-01T01:26:26.133Z,68.21
2019-05-01T01:28:54.772Z,67.96
2019-05-01T01:31:23.408Z,67.59
2019-05-01T01:33:52.039Z,68.08
2019-05-01T01:36:20.668Z,68.24
2019-05-01T01:38:49.308Z,68.14
2019-05-01T01:41:18.811Z,68.65
2019-05-01T01:43:49.325Z,69.83
2019-05-01T01:46:28.747Z,70.98
2019-05-01T01:48:57.720Z,70.75
2019-05-01T01:51:26.751Z,70.61
2019-05-01T01:53:55.479Z,70.77
2019-05-01T01:56:24.116Z,70.40
2019-05-01T01:58:53.948Z,69.77
2019-05-01T02:01:42.529Z,70.24
2019-05-01T02:04:18.939Z,70.47
2019-05-01T02:06:49.430Z,70.81
2019-05-01T02:09:18.052Z,70.42
2019-05-01T02:11:48.791Z,71.20
2019-05-01T02:14:17.541Z,71.41
2019-05-01T02:16:46.167Z,71.41
2019-05-01T02:19:14.794Z,71.38
2019-05-01T02:21:43.408Z,70.80
2019-05-01T02:24:12.038Z,70.08
2019-05-01T02:26:45.023Z,69.82
2019-05-01T02:29:33.955Z,70.61
2019-05-01T02:32:03.671Z,70.69
2019-05-01T02:34:33.906Z,71.00
2019-05-01T02:37:04.093Z,70.22
2019-05-01T02:39:34.122Z,71.23
2019-05-01T02:42:04.186Z,70.92
2019-05-01T02:44:41.563Z,69.76
2019-05-01T02:47:15.955Z,70.37
2019-05-01T02:49:59.624Z,69.54
2019-05-01T02:52:32.602Z,69.54
2019-05-01T02:57:41.132Z,69.67
2019-05-01T03:00:10.636Z,70.11
2019-05-01T03:02:40.664Z,67.75
2019-05-01T03:05:09.739Z,68.22
2019-05-01T03:07:39.570Z,67.73
2019-05-01T03:10:09.819Z,67.26
2019-05-01T03:12:42.184Z,65.30
2019-05-01T03:15:14.818Z,65.27
2019-05-01T03:17:55.623Z,65.19
2019-05-01T03:20:32.026Z,65.23
2019-05-01T03:23:21.518Z,65.11
2019-05-01T03:25:50.776Z,64.89
2019-05-01T03:28:19.758Z,65.15
2019-05-01T03:30:48.971Z,65.24
2019-05-01T03:33:19.644Z,64.33
2019-05-01T03:35:48.707Z,64.70
2019-05-01T03:38:18.706Z,64.03
2019-05-01T03:40:51.233Z,64.00
2019-05-01T03:43:20.605Z,64.54
2019-05-01T03:45:51.601Z,64.14
2019-05-01T03:48:20.412Z,64.24
2019-05-01T03:50:49.450Z,64.37
2019-05-01T03:53:18.488Z,63.56
2019-05-01T03:55:47.140Z,63.77
2019-05-01T03:58:15.922Z,63.00
2019-05-01T04:00:46.300Z,63.34
2019-05-01T04:03:22.947Z,63.98
2019-05-01T04:05:53.619Z,63.80
2019-05-01T04:08:24.559Z,62.74
2019-05-01T04:10:54.773Z,61.15
2019-05-01T04:13:23.704Z,61.32
2019-05-01T04:15:56.585Z,61.30
2019-05-01T04:18:26.913Z,62.77
2019-05-01T04:20:56.096Z,60.54
2019-05-01T04:23:25.290Z,60.44
2019-05-01T04:25:54.829Z,60.46
2019-05-01T04:28:25.199Z,60.23
2019-05-01T04:31:13.800Z,59.85
2019-05-01T04:33:47.175Z,60.05
2019-05-01T04:36:29.732Z,60.64
2019-05-01T04:38:58.905Z,60.01
2019-05-01T04:41:30.015Z,59.67
2019-05-01T04:44:00.096Z,58.65
2019-05-01T04:46:28.830Z,59.29
2019-05-01T04:48:57.504Z,57.50
2019-05-01T04:51:26.757Z,58.06
2019-05-01T04:53:56.006Z,55.93
2019-05-01T04:56:27.109Z,55.32
2019-05-01T04:58:56.341Z,56.51
2019-05-01T05:01:28.411Z,53.83
2019-05-01T05:03:57.728Z,53.86
2019-05-01T05:06:27.790Z,53.50
2019-05-01T05:08:56.944Z,54.11
2019-05-01T05:11:28.744Z,53.81
2019-05-01T05:14:13.298Z,53.87
2019-05-01T05:16:46.332Z,53.62
2019-05-01T05:19:15.066Z,54.35
2019-05-01T05:21:45.381Z,53.12
2019-05-01T05:24:14.618Z,53.75
2019-05-01T05:26:45.327Z,52.73
2019-05-01T05:29:17.257Z,52.64
2019-05-01T05:31:46.105Z,50.80
2019-05-01T05:34:18.227Z,50.26
2019-05-01T05:36:48.808Z,50.41
2019-05-01T05:39:23.231Z,50.80
2019-05-01T05:41:53.213Z,48.76
2019-05-01T05:44:22.761Z,46.86
2019-05-01T05:46:52.202Z,45.86
2019-05-01T05:52:04.777Z,43.95
2019-05-01T05:54:53.784Z,44.04
2019-05-01T05:57:29.807Z,44.51
2019-05-01T06:00:13.526Z,44.62
2019-05-01T06:02:46.797Z,42.79
2019-05-01T06:05:22.436Z,43.90
2019-05-01T06:08:11.266Z,42.28
2019-05-01T06:10:43.004Z,43.85
2019-05-01T06:13:18.011Z,44.12
2019-05-01T06:15:49.003Z,42.42
2019-05-01T06:18:24.471Z,43.92
2019-05-01T06:20:57.237Z,42.88
2019-05-01T06:23:34.012Z,41.84
2019-05-01T06:26:22.720Z,42.41
2019-05-01T06:28:55.996Z,38.38
2019-05-01T06:31:24.654Z,37.55
2019-05-01T06:33:54.973Z,34.95
2019-05-01T06:36:24.269Z,33.32
2019-05-01T06:38:53.581Z,32.04
2019-05-01T06:41:22.520Z,32.54
2019-05-01T06:43:57.105Z,31.08
2019-05-01T06:46:35.389Z,30.96
2019-05-01T06:49:11.047Z,29.85
2019-05-01T06:51:55.174Z,29.29
2019-05-01T06:54:26.920Z,30.11
2019-05-01T06:56:56.941Z,28.50
2019-05-01T06:59:31.312Z,29.39
2019-05-01T07:02:00.346Z,29.13
2019-05-01T07:04:32.227Z,29.23
2019-05-01T07:07:06.762Z,27.93
2019-05-01T07:09:34.017Z,27.03
2019-05-01T07:12:06.064Z,23.63
2019-05-01T07:14:35.221Z,21.89
2019-05-01T07:17:03.964Z,22.89
2019-05-01T07:19:53.025Z,22.80
2019-05-01T07:22:21.931Z,20.75
2019-05-01T07:24:50.985Z,17.72
2019-05-01T07:27:23.724Z,14.87
2019-05-01T07:30:04.233Z,15.63
2019-05-01T07:32:36.380Z,14.23
2019-05-01T07:35:03.946Z,13.57
2019-05-01T07:37:32.692Z,11.29
2019-05-01T07:40:02.641Z,10.85
2019-05-01T07:42:35.693Z,9.79
2019-05-01T07:45:13.158Z,9.49
2019-05-01T07:47:43.445Z,8.44
2019-05-01T07:51:10.455Z,8.36
2019-05-01T07:53:40.316Z,8.63
2019-05-01T07:56:10.118Z,10.91
2019-05-01T07:58:39.740Z,11.84
2019-05-01T08:01:18.352Z,13.11
2019-05-01T08:03:44.192Z,13.12
2019-05-01T08:06:16.079Z,11.13
2019-05-01T08:08:43.241Z,9.93
2019-05-01T08:11:12.882Z,9.60
2019-05-01T08:13:41.491Z,8.82
2019-05-01T08:16:10.211Z,8.39
2019-05-01T08:18:40.479Z,8.36
2019-05-01T08:21:10.736Z,8.45
2019-05-01T08:23:42.648Z,7.91
2019-05-01T08:26:10.318Z,8.43
2019-05-01T08:28:40.685Z,7.21
2019-05-01T08:31:28.999Z,5.84
2019-05-01T08:34:09.931Z,5.78
2019-05-01T08:36:42.704Z,6.20
2019-05-01T08:39:10.806Z,6.48
2019-05-01T08:41:39.580Z,5.20
2019-05-01T08:44:08.832Z,4.96
2019-05-01T08:46:50.975Z,5.93
2019-05-01T08:49:23.049Z,4.98
2019-05-01T08:51:51.779Z,5.56
2019-05-01T08:54:22.138Z,5.86
2019-05-01T08:56:53.130Z,5.84
2019-05-01T08:59:24.011Z,6.99
2019-05-01T09:02:07.916Z,8.73
2019-05-01T09:04:25.155Z,10.44
2019-05-01T09:06:57.296Z,11.81
2019-05-01T09:09:25.661Z,12.29
2019-05-01T09:11:54.739Z,11.71
2019-05-01T09:14:23.516Z,13.29
2019-05-01T09:16:52.627Z,14.17
2019-05-01T09:19:21.370Z,14.59
2019-05-01T09:21:50.153Z,15.29
2019-05-01T09:24:23.097Z,16.17
2019-05-01T09:26:52.452Z,17.37
2019-05-01T09:29:22.762Z,16.41
2019-05-01T09:31:51.606Z,15.15
2019-05-01T09:34:21.074Z,13.63
2019-05-01T09:36:49.987Z,11.02
2019-05-01T09:39:18.995Z,10.75
2019-05-01T09:41:48.864Z,9.95
2019-05-01T09:44:17.551Z,8.70
2019-05-01T09:46:46.182Z,8.38
2019-05-01T09:49:18.215Z,6.98
2019-05-01T09:51:47.536Z,6.83
2019-05-01T09:54:21.596Z,7.20
2019-05-01T09:56:51.850Z,5.84
2019-05-01T09:59:20.490Z,5.99
2019-05-01T10:01:49.198Z,4.80
2019-05-01T10:04:17.831Z,4.78
2019-05-01T10:06:52.401Z,4.90
2019-05-01T10:09:18.395Z,5.00
2019-05-01T10:11:47.030Z,6.23
2019-05-01T10:14:15.669Z,6.31
2019-05-01T10:16:44.343Z,5.42
2019-05-01T10:19:12.975Z,4.67
2019-05-01T10:21:41.615Z,4.68
2019-05-01T10:24:10.168Z,4.32
2019-05-01T10:26:40.452Z,6.19
2019-05-01T10:29:10.734Z,7.48
2019-05-01T10:31:50.217Z,8.51
2019-05-01T10:34:23.272Z,8.59
2019-05-01T10:36:54.575Z,6.26
2019-05-01T10:39:22.262Z,6.22
2019-05-01T10:41:51.005Z,5.77
2019-05-01T10:44:19.605Z,5.36
2019-05-01T10:46:48.233Z,6.73
2019-05-01T10:49:16.879Z,8.09
2019-05-01T10:51:45.507Z,8.62
2019-05-01T10:54:14.140Z,8.89
2019-05-01T10:56:42.777Z,9.70
2019-05-01T10:59:11.461Z,9.87
2019-05-01T11:01:50.756Z,12.37
2019-05-01T11:04:19.422Z,14.91
2019-05-01T11:06:48.126Z,14.86
2019-05-01T11:09:16.791Z,17.60
2019-05-01T11:11:45.481Z,16.80
2019-05-01T11:14:14.238Z,18.58
2019-05-01T11:16:42.875Z,18.76
2019-05-01T11:19:11.499Z,19.12
2019-05-01T11:21:40.167Z,19.77
2019-05-01T11:24:08.793Z,19.94
2019-05-01T11:26:37.424Z,21.23
2019-05-01T11:29:06.054Z,21.26
2019-05-01T11:31:52.490Z,22.11
2019-05-01T11:34:39.255Z,22.41
2019-05-01T11:37:24.684Z,22.97
2019-05-01T11:40:07.163Z,23.85
2019-05-01T11:42:35.800Z,22.26
2019-05-01T11:45:07.658Z,21.89
2019-05-01T11:47:36.286Z,23.88
2019-05-01T11:50:05.841Z,23.48
2019-05-01T11:52:34.491Z,22.89
2019-05-01T11:55:03.258Z,22.36
2019-05-01T11:57:31.892Z,23.44
2019-05-01T12:00:00.518Z,24.23
2019-05-01T12:02:29.115Z,25.03
2019-05-01T12:04:57.685Z,24.83
2019-05-01T12:07:26.320Z,27.80
2019-05-01T12:09:54.948Z,25.84
2019-05-01T12:12:25.230Z,24.69
2019-05-01T12:14:53.863Z,27.13
2019-05-01T12:17:30.274Z,24.49
2019-05-01T12:19:58.924Z,24.92
2019-05-01T12:22:27.550Z,25.43
2019-05-01T12:24:56.247Z,23.99
2019-05-01T12:27:24.885Z,24.14
2019-05-01T12:29:53.535Z,22.97
2019-05-01T12:32:22.171Z,23.22
2019-05-01T12:34:50.805Z,22.99
2019-05-01T12:37:21.202Z,25.43
2019-05-01T12:39:49.831Z,25.70
2019-05-01T12:42:20.111Z,25.15
2019-05-01T12:44:48.757Z,26.12
2019-05-01T12:47:22.236Z,26.77
2019-05-01T12:49:52.550Z,24.76
2019-05-01T12:52:31.535Z,25.42
2019-05-01T12:55:18.118Z,24.99
2019-05-01T12:57:46.703Z,26.68
2019-05-01T13:00:20.131Z,27.97
2019-05-01T13:02:48.799Z,25.49
2019-05-01T13:05:17.435Z,26.40
2019-05-01T13:07:46.004Z,26.62
2019-05-01T13:10:14.846Z,26.43
2019-05-01T13:12:43.479Z,26.92
2019-05-01T13:15:12.391Z,28.17
2019-05-01T13:17:41.055Z,27.55
2019-05-01T13:20:09.819Z,27.79
2019-05-01T13:22:38.445Z,27.59
2019-05-01T13:25:07.646Z,27.32
2019-05-01T13:27:37.938Z,26.51
2019-05-01T13:30:29.190Z,26.01
2019-05-01T13:32:59.618Z,26.64
2019-05-01T13:35:30.583Z,28.25
2019-05-01T13:37:58.723Z,27.38
2019-05-01T13:40:27.450Z,28.36
2019-05-01T13:42:56.167Z,28.05
2019-05-01T13:45:24.921Z,28.25
2019-05-01T13:47:54.589Z,26.88
2019-05-01T13:50:23.939Z,26.52
2019-05-01T13:52:52.642Z,27.46
2019-05-01T13:55:21.295Z,27.33
2019-05-01T13:57:49.916Z,27.70
2019-05-01T14:00:20.995Z,27.13
2019-05-01T14:02:49.672Z,27.20
2019-05-01T14:05:18.362Z,28.17
2019-05-01T14:07:47.069Z,27.65
2019-05-01T14:10:15.989Z,28.93
2019-05-01T14:12:44.622Z,30.05
2019-05-01T14:15:13.370Z,30.13
2019-05-01T14:17:42.097Z,30.34
2019-05-01T14:20:18.287Z,30.67
2019-05-01T14:22:48.605Z,31.01
2019-05-01T14:25:17.230Z,31.54
2019-05-01T14:27:45.889Z,30.45
2019-05-01T14:30:14.722Z,29.62
2019-05-01T14:32:43.344Z,31.48
2019-05-01T14:35:13.203Z,31.00
2019-05-01T14:37:41.840Z,31.71
2019-05-01T14:40:11.212Z,31.41
2019-05-01T14:42:39.964Z,31.60
2019-05-01T14:45:10.262Z,32.10
2019-05-01T14:47:38.961Z,32.60
2019-05-01T14:50:08.484Z,33.48
2019-05-01T14:52:37.122Z,34.49
2019-05-01T14:55:08.602Z,33.71
2019-05-01T14:57:37.209Z,33.79
2019-05-01T15:00:07.705Z,33.55
2019-05-01T15:02:36.366Z,34.28
2019-05-01T15:05:07.553Z,35.49
2019-05-01T15:07:43.444Z,34.05
2019-05-01T15:10:06.969Z,33.63
2019-05-01T15:12:35.654Z,32.80
2019-05-01T15:15:10.573Z,33.15
2019-05-01T15:17:40.834Z,34.40
2019-05-01T15:20:09.744Z,34.50
2019-05-01T15:22:38.450Z,34.92
2019-05-01T15:25:07.593Z,36.17
2019-05-01T15:27:36.236Z,35.52
2019-05-01T15:30:06.863Z,35.26
2019-05-01T15:32:35.484Z,35.61
2019-05-01T15:35:05.051Z,34.71
2019-05-01T15:37:35.272Z,35.33
2019-05-01T15:40:07.614Z,36.33
2019-05-01T15:42:37.891Z,36.34
2019-05-01T15:45:08.819Z,37.17
2019-05-01T15:47:38.979Z,37.18
2019-05-01T15:50:08.898Z,37.97
2019-05-01T15:52:39.223Z,38.32
2019-05-01T15:55:11.689Z,37.45
2019-05-01T15:57:41.408Z,37.88
2019-05-01T16:00:13.679Z,38.04
2019-05-01T16:02:43.317Z,37.75
2019-05-01T16:05:13.816Z,39.15
2019-05-01T16:07:46.107Z,39.77
2019-05-01T16:10:18.094Z,38.38
2019-05-01T16:12:51.512Z,38.88
2019-05-01T16:15:28.445Z,39.00
2019-05-01T16:17:57.072Z,40.46
2019-05-01T16:20:30.011Z,39.76
2019-05-01T16:22:58.667Z,40.32
2019-05-01T16:25:27.312Z,39.43
2019-05-01T16:27:56.961Z,40.20
2019-05-01T16:30:26.988Z,38.82
2019-05-01T16:32:56.435Z,38.31
2019-05-01T16:35:25.084Z,39.21
2019-05-01T16:37:55.170Z,39.21
2019-05-01T16:40:41.147Z,40.45
2019-05-01T16:43:11.336Z,40.11
2019-05-01T16:45:40.336Z,39.99
2019-05-01T16:48:10.072Z,41.18
2019-05-01T16:50:40.311Z,41.79
2019-05-01T16:53:09.216Z,41.42
2019-05-01T16:55:38.902Z,42.69
2019-05-01T16:58:11.597Z,42.36
2019-05-01T17:00:59.391Z,42.88
2019-05-01T17:03:46.491Z,42.81
2019-05-01T17:06:17.833Z,43.31
2019-05-01T17:08:51.493Z,43.44
2019-05-01T17:11:23.670Z,44.15
2019-05-01T17:13:52.490Z,44.38
2019-05-01T17:16:22.198Z,45.22
2019-05-01T17:18:52.439Z,45.22
2019-05-01T17:21:22.141Z,46.23
2019-05-01T17:23:51.582Z,47.16
2019-05-01T17:26:20.972Z,48.18
2019-05-01T17:28:51.038Z,48.77
2019-05-01T17:31:20.010Z,49.65
2019-05-01T17:33:50.796Z,49.67
2019-05-01T17:36:19.557Z,50.71
2019-05-01T17:38:50.049Z,51.19
2019-05-01T17:41:22.723Z,51.40
2019-05-01T17:43:50.920Z,51.69
2019-05-01T17:46:20.018Z,51.35
2019-05-01T17:48:50.553Z,51.10
2019-05-01T17:51:20.036Z,50.94
2019-05-01T17:53:51.309Z,50.98
2019-05-01T17:56:27.554Z,51.83
2019-05-01T17:58:52.689Z,51.51
2019-05-01T18:01:35.400Z,51.93
2019-05-01T18:04:15.363Z,52.57
2019-05-01T18:06:48.216Z,52.61
2019-05-01T18:09:18.227Z,53.54
2019-05-01T18:11:52.275Z,54.07
2019-05-01T18:14:18.407Z,54.33
2019-05-01T18:16:47.504Z,54.47
2019-05-01T18:19:16.305Z,55.69
2019-05-01T18:21:51.864Z,55.34
2019-05-01T18:24:35.230Z,55.62
2019-05-01T18:27:21.694Z,55.94
2019-05-01T18:29:54.935Z,56.39
2019-05-01T18:32:25.312Z,57.13
2019-05-01T18:34:54.399Z,56.69
2019-05-01T18:37:35.096Z,57.04
2019-05-01T18:40:03.804Z,56.92
2019-05-01T18:42:32.570Z,57.15
2019-05-01T18:45:02.453Z,57.27
2019-05-01T18:47:31.095Z,57.94
2019-05-01T18:49:59.712Z,57.97
2019-05-01T18:52:29.363Z,58.27
2019-05-01T18:54:59.137Z,58.17
2019-05-01T18:57:28.218Z,58.28
2019-05-01T18:59:57.034Z,57.82
2019-05-01T19:02:26.235Z,57.47
2019-05-01T19:04:55.953Z,57.52
2019-05-01T19:07:25.576Z,57.46
2019-05-01T19:09:54.204Z,57.30
2019-05-01T19:12:23.955Z,57.90
2019-05-01T19:14:52.964Z,57.58
2019-05-01T19:17:23.713Z,56.98
2019-05-01T19:19:53.309Z,57.46
2019-05-01T19:22:22.547Z,57.20
2019-05-01T19:24:51.191Z,57.31
2019-05-01T19:27:24.262Z,57.44
2019-05-01T19:29:52.575Z,57.40
2019-05-01T19:32:22.910Z,58.95
2019-05-01T19:34:52.457Z,59.09
2019-05-01T19:37:23.992Z,58.77
2019-05-01T19:39:54.995Z,59.62
2019-05-01T19:42:25.665Z,59.39
2019-05-01T19:44:56.137Z,58.83
2019-05-01T19:47:27.722Z,59.08
2019-05-01T19:50:06.493Z,58.48
2019-05-01T19:52:32.449Z,58.73
2019-05-01T19:55:06.451Z,58.02
2019-05-01T19:57:33.555Z,58.73
2019-05-01T20:00:02.639Z,58.97
2019-05-01T20:02:31.395Z,59.13
2019-05-01T20:05:00.426Z,59.11
2019-05-01T20:07:29.848Z,59.21
2019-05-01T20:09:59.432Z,59.09
2019-05-01T20:12:29.907Z,58.83
2019-05-01T20:14:59.492Z,59.38
2019-05-01T20:17:28.746Z,59.84
2019-05-01T20:19:58.407Z,60.00
2019-05-01T20:22:27.383Z,59.70
2019-05-01T20:24:56.359Z,59.76
2019-05-01T20:27:27.546Z,59.45
2019-05-01T20:29:56.401Z,60.95
2019-05-01T20:32:26.377Z,60.08
2019-05-01T20:34:55.399Z,59.37
2019-05-01T20:37:24.033Z,60.55
2019-05-01T20:39:53.121Z,59.75
2019-05-01T20:42:22.166Z,58.88
2019-05-01T20:45:04.011Z,59.91
2019-05-01T20:47:34.509Z,60.12
2019-05-01T20:49:52.311Z,59.83
2019-05-01T20:52:21.197Z,58.43
2019-05-01T20:54:50.798Z,58.84
2019-05-01T20:57:36.087Z,58.74
2019-05-01T21:00:11.335Z,59.16
2019-05-01T21:02:38.846Z,58.75
2019-05-01T21:05:22.946Z,58.79
2019-05-01T21:08:02.034Z,58.85
2019-05-01T21:10:36.073Z,59.03
2019-05-01T21:13:05.187Z,59.60
2019-05-01T21:15:34.307Z,59.99
2019-05-01T21:18:03.887Z,59.25
2019-05-01T21:20:33.937Z,58.84
2019-05-01T21:23:10.373Z,59.18
2019-05-01T21:25:35.017Z,59.14
2019-05-01T21:28:04.753Z,58.74
2019-05-01T21:30:34.352Z,59.42
2019-05-01T21:33:09.843Z,59.20
2019-05-01T21:35:35.992Z,59.74
2019-05-01T21:38:05.048Z,60.11
2019-05-01T21:40:40.735Z,59.87
2019-05-01T21:43:04.544Z,60.69
2019-05-01T21:45:33.176Z,60.46
2019-05-01T21:48:03.062Z,60.52
2019-05-01T21:50:33.562Z,60.45
2019-05-01T21:53:06.714Z,60.56
2019-05-01T21:55:34.807Z,60.76
2019-05-01T21:58:05.113Z,61.17
2019-05-01T22:00:35.804Z,61.17
2019-05-01T22:03:04.904Z,61.00
2019-05-01T22:05:34.771Z,62.29
2019-05-01T22:08:05.031Z,62.65
2019-05-01T22:10:34.154Z,63.23
2019-05-01T22:13:03.920Z,63.17
2019-05-01T22:15:34.507Z,63.92
2019-05-01T22:18:10.679Z,64.50
2019-05-01T22:20:43.677Z,66.36
2019-05-01T22:23:21.967Z,66.21
2019-05-01T22:25:52.134Z,66.38
2019-05-01T22:28:22.426Z,66.78
2019-05-01T22:30:55.832Z,66.44
2019-05-01T22:33:25.484Z,66.11
2019-05-01T22:35:54.449Z,66.70
2019-05-01T22:38:23.528Z,67.25
2019-05-01T22:41:05.534Z,68.27
2019-05-01T22:43:25.282Z,67.32
2019-05-01T22:45:56.453Z,67.97
2019-05-01T22:48:25.513Z,67.52
2019-05-01T22:50:55.841Z,67.85
2019-05-01T22:53:24.791Z,67.90
2019-05-01T22:55:57.190Z,68.15
2019-05-01T22:58:24.115Z,67.92
2019-05-01T23:00:54.422Z,67.92
2019-05-01T23:03:41.152Z,69.24
2019-05-01T23:06:11.649Z,68.85
2019-05-01T23:08:40.625Z,67.96
2019-05-01T23:11:19.729Z,69.59
2019-05-01T23:13:40.694Z,69.29
2019-05-01T23:16:09.688Z,69.19
2019-05-01T23:18:38.327Z,67.86
2019-05-01T23:21:09.792Z,69.86
2019-05-01T23:23:38.681Z,69.39
2019-05-01T23:26:11.570Z,69.96
2019-05-01T23:28:40.971Z,70.55
2019-05-01T23:31:09.651Z,70.79
2019-05-01T23:33:38.554Z,70.33
2019-05-01T23:36:08.214Z,69.26
2019-05-01T23:38:37.749Z,69.32
2019-05-01T23:41:06.322Z,68.92
2019-05-01T23:43:35.303Z,69.22
2019-05-01T23:46:05.907Z,67.99
2019-05-01T23:48:35.375Z,68.30
2019-05-01T23:51:04.485Z,68.35
2019-05-01T23:53:33.392Z,67.74
2019-05-01T23:56:02.150Z,67.24
2019-05-01T23:58:31.018Z,68.00
